Gambo, Canada
Current Conditions -  °F | °C
As of 12:00 AM on Tuesday 21 Oct 2014 (Local Time) from CYQX Reporting Station
Few Clouds Few Clouds  
Wind Chill: 30°   Ceiling: Unl
Heat Index: 41°   Visibility: 20mi
Dew Point: 34°   Wind: 26mph
Humidity: 76%   Direction: 220°SW
Pressure: 29.56"   Gusts: 35mph
Location:  48.79°N, 54.21°W
Report Text: CYQX 210200Z 22023G30KT 20SM FEW030 05/01 A2956 RMK SC1 SLP013
Loading
Personal Weather Stations






























Interactive Weather Map
Tropical Storm Tracking
New forecast layout! Learn more

10-Day Weather Forecast

Advertisements
Track Severe Weather on mobile